Time;durP1;ratioP1;P1;durP2;ratioP2;P2;SDS_P1;SDS_P2;PMS_P1;PMS_P2;Temp;Humidity;BMP_temperature;BMP_pressure;BME280_temperature;BME280_humidity;BME280_pressure;Samples;Min_cycle;Max_cycle;Signal;HPM_P1;HPM_P2
2023/11/23 00:01:09;;;;;;;0.05;0.05;;;;;;;1.94;59.28;100682.56;4291505;33;20254;-91
2023/11/23 00:03:35;;;;;;;0.90;0.90;;;;;;;1.98;59.29;100689.50;4259987;33;20254;-92
2023/11/23 00:06:01;;;;;;;1.42;1.12;;;;;;;1.81;59.27;100690.87;4266942;33;20102;-91
2023/11/23 00:08:27;;;;;;;0.88;0.88;;;;;;;1.80;59.27;100700.28;4285985;33;20188;-92
2023/11/23 00:10:52;;;;;;;0.68;0.68;;;;;;;1.71;59.27;100706.97;4279391;33;20163;-92
2023/11/23 00:13:18;;;;;;;0.05;0.05;;;;;;;1.75;59.26;100714.75;4290510;33;20097;-92
2023/11/23 00:15:43;;;;;;;0.68;0.68;;;;;;;1.71;59.27;100707.81;4281778;33;20101;-93
2023/11/23 00:18:09;;;;;;;0.47;0.47;;;;;;;1.65;59.26;100704.25;4279015;33;21779;-93
2023/11/23 00:20:34;;;;;;;0.52;0.52;;;;;;;1.45;59.25;100702.19;4270687;33;20148;-93
2023/11/23 00:22:59;;;;;;;0.20;0.20;;;;;;;1.53;59.25;100679.22;4280372;33;20152;-92
2023/11/23 00:25:26;;;;;;;0.20;0.20;;;;;;;1.67;59.26;100693.22;4279660;33;20148;-92
2023/11/23 00:27:52;;;;;;;1.15;0.98;;;;;;;1.75;59.26;100681.37;4286455;33;20739;-93
2023/11/23 00:30:18;;;;;;;0.00;0.00;;;;;;;1.65;59.27;100682.00;4279342;33;20466;-92
2023/11/23 00:32:43;;;;;;;0.03;0.03;;;;;;;1.83;59.27;100678.94;4291152;33;20160;-94
2023/11/23 00:35:09;;;;;;;0.90;0.75;;;;;;;1.62;59.26;100684.53;4270009;33;20153;-94
2023/11/23 00:37:34;;;;;;;0.20;0.20;;;;;;;1.73;59.27;100693.31;4279711;33;20950;-94
2023/11/23 00:40:00;;;;;;;1.10;0.70;;;;;;;1.74;59.27;100694.19;4281601;33;20108;-94
2023/11/23 00:42:25;;;;;;;0.00;0.00;;;;;;;1.85;59.28;100685.81;4293032;33;20152;-94
2023/11/23 00:44:51;;;;;;;1.75;1.65;;;;;;;1.76;59.26;100677.09;4277396;33;20163;-93
2023/11/23 00:47:19;;;;;;;0.30;0.30;;;;;;;1.61;59.26;100677.66;4280231;33;20139;-94
2023/11/23 00:49:44;;;;;;;0.28;0.28;;;;;;;1.72;59.27;100683.03;4261218;33;20167;-93
2023/11/23 00:52:10;;;;;;;0.15;0.15;;;;;;;1.73;59.27;100687.31;4270338;33;20494;-93
2023/11/23 00:54:39;;;;;;;0.25;0.25;;;;;;;1.46;59.25;100688.53;4269971;33;20140;-93
2023/11/23 00:57:08;;;;;;;0.85;0.85;;;;;;;1.62;59.26;100681.97;4282362;33;20113;-93
2023/11/23 00:59:33;;;;;;;0.00;0.00;;;;;;;1.60;59.26;100672.50;4281832;33;20097;-92
2023/11/23 01:02:02;;;;;;;0.55;0.55;;;;;;;1.69;59.26;100672.69;4257807;33;20134;-93
2023/11/23 01:04:33;;;;;;;0.10;0.10;;;;;;;1.89;59.27;100673.91;4279177;33;20808;-93
2023/11/23 01:06:58;;;;;;;8.13;1.33;;;;;;;1.71;59.27;100686.44;4278950;33;20731;-93
2023/11/23 01:09:27;;;;;;;0.70;0.70;;;;;;;1.73;59.27;100674.47;4279213;33;20112;-93
2023/11/23 01:11:54;;;;;;;1.15;1.00;;;;;;;1.78;59.28;100675.44;4281760;33;20126;-93
2023/11/23 01:14:21;;;;;;;0.55;0.55;;;;;;;1.74;59.27;100664.25;4265109;33;20105;-93
2023/11/23 01:16:47;;;;;;;2.65;1.65;;;;;;;1.59;59.26;100663.94;4277006;33;20178;-94
2023/11/23 01:19:13;;;;;;;1.55;1.40;;;;;;;1.63;59.26;100668.28;4265583;33;20511;-93
2023/11/23 01:21:38;;;;;;;1.08;0.65;;;;;;;1.52;59.25;100667.25;4255579;33;20124;-93
2023/11/23 01:24:04;;;;;;;0.10;0.10;;;;;;;1.36;59.25;100658.38;4277187;33;20153;-93
2023/11/23 01:26:29;;;;;;;0.40;0.40;;;;;;;1.40;59.25;100657.59;4255541;33;20117;-92
2023/11/23 01:28:55;;;;;;;1.00;0.95;;;;;;;1.48;59.26;100661.19;4277018;33;20144;-94
2023/11/23 01:31:20;;;;;;;0.45;0.45;;;;;;;1.47;59.25;100662.03;4267657;33;20089;-92
2023/11/23 01:33:45;;;;;;;0.65;0.65;;;;;;;1.32;59.24;100679.66;4276352;33;20145;-93
2023/11/23 01:36:11;;;;;;;0.88;0.88;;;;;;;1.21;59.24;100676.03;4276775;33;20152;-93
2023/11/23 01:38:36;;;;;;;0.52;0.52;;;;;;;1.31;59.24;100685.63;4277269;33;20498;-93
2023/11/23 01:41:02;;;;;;;0.60;0.60;;;;;;;1.32;59.24;100677.09;4277632;33;20178;-94
2023/11/23 01:43:27;;;;;;;2.47;1.27;;;;;;;1.29;59.24;100678.75;4271782;33;20093;-94
2023/11/23 01:45:53;;;;;;;0.00;0.00;;;;;;;1.38;59.24;100684.06;4282185;33;20125;-94
2023/11/23 01:48:19;;;;;;;1.85;1.75;;;;;;;1.38;59.24;100689.19;4273213;33;20161;-94
2023/11/23 01:50:45;;;;;;;1.77;1.35;;;;;;;1.48;59.25;100680.84;4241687;33;20147;-95
2023/11/23 01:53:10;;;;;;;1.27;1.17;;;;;;;1.42;59.25;100676.47;4272158;33;20084;-94
2023/11/23 01:55:36;;;;;;;1.00;0.85;;;;;;;1.42;59.26;100673.91;4271438;33;20445;-94
2023/11/23 01:58:02;;;;;;;1.48;1.37;;;;;;;1.51;59.25;100663.81;4281443;33;20111;-94
2023/11/23 02:00:29;;;;;;;1.20;1.02;;;;;;;1.47;59.25;100658.59;4282797;33;20137;-94
2023/11/23 02:02:55;;;;;;;0.47;0.20;;;;;;;1.52;59.25;100657.84;4284677;33;20092;-93
2023/11/23 02:05:21;;;;;;;0.00;0.00;;;;;;;1.57;59.26;100651.94;4278277;33;20119;-93
2023/11/23 02:07:47;;;;;;;1.17;0.80;;;;;;;1.66;59.27;100657.25;4264988;33;20173;-93
2023/11/23 02:10:12;;;;;;;1.37;1.23;;;;;;;1.58;59.26;100664.78;4276460;33;20157;-93
2023/11/23 02:12:38;;;;;;;4.68;2.22;;;;;;;1.76;59.26;100657.44;4271493;33;20121;-92
2023/11/23 02:15:04;;;;;;;2.47;1.85;;;;;;;1.72;59.27;100658.22;4277156;33;20120;-92
2023/11/23 02:17:30;;;;;;;1.98;1.45;;;;;;;1.71;59.27;100650.50;4265414;33;20804;-93
2023/11/23 02:19:56;;;;;;;0.00;0.00;;;;;;;1.73;59.27;100641.97;4273479;33;20149;-92
2023/11/23 02:22:22;;;;;;;0.17;0.17;;;;;;;1.75;59.26;100635.16;4268052;33;20137;-93
2023/11/23 02:24:47;;;;;;;2.37;2.22;;;;;;;1.68;59.26;100638.47;4267062;33;20108;-93
2023/11/23 02:27:13;;;;;;;2.45;2.30;;;;;;;1.57;59.26;100628.84;4269245;33;20116;-94
2023/11/23 02:29:38;;;;;;;1.58;1.15;;;;;;;1.64;59.26;100630.66;4274920;33;20499;-92
2023/11/23 02:32:08;;;;;;;0.08;0.08;;;;;;;1.66;59.26;100623.87;4279197;33;20096;-92
2023/11/23 02:34:34;;;;;;;2.08;1.98;;;;;;;1.72;59.27;100632.56;4278782;33;20700;-93
2023/11/23 02:36:59;;;;;;;0.17;0.17;;;;;;;1.62;59.26;100634.91;4267147;33;20151;-93
2023/11/23 02:39:25;;;;;;;1.55;1.45;;;;;;;1.76;59.26;100636.03;4266892;33;20434;-93
2023/11/23 02:41:50;;;;;;;0.40;0.40;;;;;;;1.75;59.27;100634.31;4265399;33;20111;-92
2023/11/23 02:44:16;;;;;;;2.92;2.20;;;;;;;1.61;59.26;100621.22;4275345;33;20109;-94
2023/11/23 02:46:41;;;;;;;0.03;0.03;;;;;;;1.44;59.25;100626.06;4284491;33;20152;-93
2023/11/23 02:49:07;;;;;;;0.03;0.03;;;;;;;1.56;59.26;100625.41;4260241;33;20100;-93
2023/11/23 02:51:32;;;;;;;1.45;1.02;;;;;;;1.40;59.25;100623.37;4265432;33;20492;-93
2023/11/23 02:53:58;;;;;;;0.30;0.30;;;;;;;1.41;59.25;100625.97;4276065;33;20152;-94
2023/11/23 02:56:23;;;;;;;1.17;0.95;;;;;;;1.37;59.24;100634.44;4263656;33;20439;-93
2023/11/23 02:58:49;;;;;;;1.15;1.05;;;;;;;1.34;59.25;100642.09;4276091;33;20092;-93
2023/11/23 03:01:15;;;;;;;0.62;0.62;;;;;;;1.43;59.25;100629.47;4286447;33;20105;-94
2023/11/23 03:03:40;;;;;;;1.92;1.35;;;;;;;1.43;59.25;100624.34;4267963;33;20131;-93
2023/11/23 03:06:07;;;;;;;0.70;0.70;;;;;;;1.50;59.25;100613.34;4261964;33;20124;-94
2023/11/23 03:08:32;;;;;;;0.43;0.35;;;;;;;1.65;59.26;100599.91;4286892;33;20100;-93
2023/11/23 03:10:58;;;;;;;0.10;0.10;;;;;;;1.50;59.26;100599.66;4264693;33;20109;-94
2023/11/23 03:13:24;;;;;;;0.10;0.10;;;;;;;1.62;59.26;100599.84;4266445;33;20455;-93
2023/11/23 03:15:50;;;;;;;0.00;0.00;;;;;;;1.75;59.26;100596.66;4267160;33;20116;-95
2023/11/23 03:18:15;;;;;;;4.78;1.40;;;;;;;1.73;59.27;100595.78;4266933;33;20084;-94
2023/11/23 03:20:41;;;;;;;1.55;1.17;;;;;;;1.81;59.27;100601.03;4266764;33;20113;-94
2023/11/23 03:23:07;;;;;;;0.20;0.20;;;;;;;1.98;59.28;100601.31;4266927;33;20455;-94
2023/11/23 03:25:32;;;;;;;1.55;1.45;;;;;;;1.87;59.28;100593.44;4266770;33;20554;-94
2023/11/23 03:27:58;;;;;;;3.90;2.17;;;;;;;2.10;59.29;100574.12;4265942;33;20084;-92
2023/11/23 03:30:23;;;;;;;0.10;0.10;;;;;;;2.02;59.28;100577.41;4262801;33;20136;-92
2023/11/23 03:32:49;;;;;;;0.22;0.22;;;;;;;2.11;59.29;100573.28;4286825;33;20101;-91
2023/11/23 03:35:14;;;;;;;0.40;0.40;;;;;;;2.13;59.29;100576.75;4254328;33;20152;-93
2023/11/23 03:37:40;;;;;;;2.03;0.70;;;;;;;1.89;59.27;100581.47;4267717;33;20111;-94
2023/11/23 03:40:09;;;;;;;2.30;2.10;;;;;;;1.83;59.27;100571.12;4266488;33;20396;-93
2023/11/23 03:42:34;;;;;;;0.43;0.43;;;;;;;1.99;59.28;100564.53;4266118;33;20088;-93
2023/11/23 03:45:00;;;;;;;0.00;0.00;;;;;;;1.97;59.28;100561.09;4260830;33;20129;-93
2023/11/23 03:47:25;;;;;;;0.47;0.47;;;;;;;2.06;59.28;100558.66;4272476;33;20159;-93
2023/11/23 03:49:51;;;;;;;0.28;0.28;;;;;;;1.98;59.29;100563.69;4267145;33;24987;-92
2023/11/23 03:52:17;;;;;;;0.37;0.37;;;;;;;2.06;59.28;100571.50;4258574;33;20185;-92
2023/11/23 03:54:42;;;;;;;2.47;0.93;;;;;;;2.13;59.29;100565.63;4275500;33;20769;-92
2023/11/23 03:57:08;;;;;;;0.90;0.90;;;;;;;2.02;59.28;100569.72;4270356;33;20133;-92
2023/11/23 03:59:33;;;;;;;0.03;0.03;;;;;;;1.94;59.28;100571.31;4268331;33;20131;-92
2023/11/23 04:01:59;;;;;;;0.85;0.82;;;;;;;2.01;59.28;100568.84;4265950;33;20105;-92
2023/11/23 04:04:24;;;;;;;1.35;1.30;;;;;;;1.92;59.28;100568.72;4272345;33;20594;-92
2023/11/23 04:06:50;;;;;;;0.20;0.20;;;;;;;2.03;59.28;100574.00;4256539;33;20173;-92
2023/11/23 04:09:17;;;;;;;0.10;0.10;;;;;;;2.04;59.29;100573.16;4264649;33;25997;-92
2023/11/23 04:11:44;;;;;;;0.25;0.25;;;;;;;2.02;59.28;100574.84;4281813;33;20135;-91
2023/11/23 04:14:09;;;;;;;0.30;0.30;;;;;;;1.95;59.28;100583.31;4264773;33;20105;-92
2023/11/23 04:16:36;;;;;;;1.55;1.45;;;;;;;1.72;59.27;100591.50;4255920;33;20155;-91
2023/11/23 04:19:01;;;;;;;1.60;1.50;;;;;;;1.83;59.27;100586.53;4268486;33;20698;-92
2023/11/23 04:21:27;;;;;;;0.93;0.93;;;;;;;1.80;59.27;100591.59;4277156;33;20164;-94
2023/11/23 04:23:52;;;;;;;0.22;0.22;;;;;;;1.90;59.27;100597.78;4263005;33;20172;-92
2023/11/23 04:26:18;;;;;;;0.68;0.68;;;;;;;1.99;59.29;100603.06;4255333;33;20145;-92
2023/11/23 04:28:43;;;;;;;0.00;0.00;;;;;;;1.91;59.27;100596.94;4264898;33;20472;-92
2023/11/23 04:31:08;;;;;;;0.15;0.15;;;;;;;1.84;59.28;100598.53;4265081;33;20467;-92
2023/11/23 04:33:34;;;;;;;0.20;0.20;;;;;;;1.92;59.28;100590.97;4265120;33;20577;-92
2023/11/23 04:35:59;;;;;;;0.75;0.75;;;;;;;1.78;59.27;100594.16;4279883;33;20172;-93
2023/11/23 04:38:24;;;;;;;0.20;0.20;;;;;;;1.73;59.26;100594.91;4253570;33;23155;-93
2023/11/23 04:40:50;;;;;;;0.37;0.37;;;;;;;1.80;59.27;100592.47;4289941;33;20120;-93
2023/11/23 04:43:16;;;;;;;0.75;0.75;;;;;;;1.79;59.27;100603.56;4266122;33;20109;-92
2023/11/23 04:45:42;;;;;;;0.22;0.22;;;;;;;1.93;59.28;100605.53;4256318;33;20162;-92
2023/11/23 04:48:07;;;;;;;4.68;1.40;;;;;;;1.97;59.28;100604.72;4263918;33;20186;-92
2023/11/23 04:50:33;;;;;;;0.55;0.55;;;;;;;1.81;59.27;100601.91;4286862;33;20414;-93
2023/11/23 04:52:58;;;;;;;6.75;2.17;;;;;;;1.98;59.29;100609.87;4258327;33;20152;-93
2023/11/23 04:55:24;;;;;;;3.45;0.40;;;;;;;1.77;59.27;100609.53;4267354;33;20220;-93
2023/11/23 04:57:50;;;;;;;0.65;0.65;;;;;;;1.84;59.28;100611.34;4264020;33;20129;-93
2023/11/23 05:00:15;;;;;;;0.70;0.70;;;;;;;1.84;59.28;100612.22;4273542;33;20192;-92
2023/11/23 05:02:43;;;;;;;1.45;1.35;;;;;;;2.07;59.29;100611.72;4279988;33;20156;-93
2023/11/23 05:05:14;;;;;;;1.02;1.02;;;;;;;2.18;59.29;100605.06;4283191;33;20116;-91
2023/11/23 05:07:39;;;;;;;0.52;0.52;;;;;;;2.08;59.29;100610.88;4277251;33;20103;-92
2023/11/23 05:10:08;;;;;;;0.57;0.57;;;;;;;2.02;59.29;100616.81;4283256;33;20200;-91
2023/11/23 05:12:34;;;;;;;0.35;0.20;;;;;;;1.82;59.27;100602.75;4267489;33;20140;-92
2023/11/23 05:14:59;;;;;;;0.10;0.10;;;;;;;1.84;59.28;100607.09;4252920;33;20089;-93
2023/11/23 05:17:25;;;;;;;1.12;0.77;;;;;;;1.91;59.27;100613.22;4263564;33;20166;-90
2023/11/23 05:19:50;;;;;;;0.35;0.35;;;;;;;1.77;59.27;100612.97;4263247;33;20480;-91
2023/11/23 05:22:16;;;;;;;0.28;0.28;;;;;;;1.76;59.26;100624.06;4275626;33;20117;-92
2023/11/23 05:24:41;;;;;;;0.65;0.65;;;;;;;1.83;59.27;100630.16;4263761;33;20141;-92
2023/11/23 05:27:06;;;;;;;1.65;1.55;;;;;;;1.93;59.28;100629.50;4250985;33;20124;-92
2023/11/23 05:29:32;;;;;;;3.05;0.70;;;;;;;1.93;59.28;100633.78;4264200;33;20127;-93
2023/11/23 05:31:57;;;;;;;3.28;0.60;;;;;;;2.19;59.29;100624.78;4248221;33;20105;-93
2023/11/23 05:34:23;;;;;;;3.50;2.58;;;;;;;1.92;59.28;100620.06;4259154;33;20109;-92
2023/11/23 05:36:49;;;;;;;0.32;0.32;;;;;;;1.95;59.28;100614.97;4254751;33;20131;-92
2023/11/23 05:39:15;;;;;;;0.00;0.00;;;;;;;1.94;59.28;100613.25;4273041;33;20761;-93
2023/11/23 05:41:40;;;;;;;0.55;0.55;;;;;;;1.97;59.28;100610.72;4278135;33;20102;-93
2023/11/23 05:44:06;;;;;;;1.40;0.65;;;;;;;2.05;59.28;100611.72;4266048;33;20081;-93
2023/11/23 05:46:32;;;;;;;0.22;0.22;;;;;;;2.22;59.30;100613.69;4254171;33;20807;-93
2023/11/23 05:48:57;;;;;;;0.32;0.32;;;;;;;2.08;59.29;100624.59;4257096;33;20152;-94
2023/11/23 05:51:23;;;;;;;0.98;0.98;;;;;;;1.92;59.28;100625.19;4254504;33;20389;-93
2023/11/23 05:53:48;;;;;;;0.88;0.88;;;;;;;2.23;59.30;100623.13;4256345;33;20129;-93
2023/11/23 05:56:14;;;;;;;1.20;0.98;;;;;;;1.96;59.28;100618.41;4271908;33;20105;-93
2023/11/23 05:58:39;;;;;;;1.75;1.65;;;;;;;1.80;59.27;100618.12;4257103;33;20125;-93
2023/11/23 06:01:05;;;;;;;3.08;1.15;;;;;;;1.85;59.28;100626.78;4261828;33;20149;-93
2023/11/23 06:03:31;;;;;;;0.35;0.35;;;;;;;1.76;59.26;100613.78;4250745;33;20081;-91
2023/11/23 06:05:57;;;;;;;0.00;0.00;;;;;;;1.84;59.28;100617.34;4264245;33;20123;-93
2023/11/23 06:08:22;;;;;;;0.40;0.40;;;;;;;1.76;59.26;100620.63;4277092;33;20149;-92
2023/11/23 06:10:47;;;;;;;0.32;0.32;;;;;;;1.93;59.28;100611.53;4265631;33;20194;-92
2023/11/23 06:13:14;;;;;;;0.73;0.73;;;;;;;1.73;59.27;100618.03;4268022;33;20167;-94
2023/11/23 06:15:40;;;;;;;0.22;0.22;;;;;;;1.69;59.26;100614.53;4279039;33;20148;-94
2023/11/23 06:18:05;;;;;;;1.10;1.10;;;;;;;1.67;59.26;100623.91;4278620;33;20120;-95
2023/11/23 06:20:31;;;;;;;1.87;0.77;;;;;;;1.83;59.27;100630.16;4277654;33;20129;-93
2023/11/23 06:22:56;;;;;;;2.58;1.92;;;;;;;1.82;59.27;100637.00;4277615;33;20150;-93
2023/11/23 06:25:23;;;;;;;1.55;0.77;;;;;;;1.81;59.27;100632.69;4277753;33;20143;-92
2023/11/23 06:27:49;;;;;;;1.10;1.10;;;;;;;1.80;59.27;100622.41;4291327;33;20109;-92
2023/11/23 06:30:15;;;;;;;0.35;0.35;;;;;;;1.83;59.27;100627.59;4289534;33;20162;-92
2023/11/23 06:32:40;;;;;;;1.33;1.05;;;;;;;1.93;59.28;100624.38;4284546;33;20096;-92
2023/11/23 06:35:06;;;;;;;1.23;1.12;;;;;;;1.97;59.28;100625.28;4266170;33;20414;-92
2023/11/23 06:37:32;;;;;;;0.98;0.98;;;;;;;1.96;59.28;100620.97;4278161;33;20504;-91
2023/11/23 06:39:57;;;;;;;0.30;0.22;;;;;;;1.92;59.28;100624.34;4277445;33;20211;-92
2023/11/23 06:42:22;;;;;;;0.50;0.50;;;;;;;1.84;59.28;100619.06;4277178;33;24003;-92
2023/11/23 06:44:49;;;;;;;1.85;1.75;;;;;;;1.74;59.27;100614.62;4277563;33;23086;-93
2023/11/23 06:47:15;;;;;;;1.00;1.00;;;;;;;1.88;59.28;100609.69;4278148;33;20455;-92
2023/11/23 06:49:40;;;;;;;0.52;0.52;;;;;;;1.90;59.27;100611.47;4277753;33;20168;-91
2023/11/23 06:52:06;;;;;;;0.85;0.85;;;;;;;2.08;59.29;100593.78;4277728;33;20169;-92
2023/11/23 06:54:32;;;;;;;0.37;0.37;;;;;;;2.17;59.29;100598.22;4268199;33;20417;-92
2023/11/23 06:56:57;;;;;;;1.60;1.50;;;;;;;2.02;59.28;100603.09;4277693;33;20109;-92
2023/11/23 06:59:23;;;;;;;2.90;0.95;;;;;;;2.24;59.30;100597.47;4268128;33;20096;-90
2023/11/23 07:01:48;;;;;;;1.50;0.77;;;;;;;2.37;59.31;100601.94;4277127;33;20103;-92
2023/11/23 07:04:14;;;;;;;0.70;0.70;;;;;;;2.36;59.31;100596.75;4278231;33;20115;-91
2023/11/23 07:06:40;;;;;;;1.30;0.93;;;;;;;2.22;59.30;100585.44;4277445;33;20142;-93
2023/11/23 07:09:06;;;;;;;0.47;0.47;;;;;;;2.37;59.31;100583.97;4278430;33;21377;-93
2023/11/23 07:11:32;;;;;;;3.50;2.12;;;;;;;2.55;59.31;100588.47;4275244;33;20110;-93
2023/11/23 07:13:57;;;;;;;1.20;1.10;;;;;;;2.41;59.31;100593.44;4275436;33;20436;-92
2023/11/23 07:16:22;;;;;;;0.55;0.55;;;;;;;2.50;59.32;100590.13;4251928;33;20129;-91
2023/11/23 07:18:48;;;;;;;5.47;1.23;;;;;;;2.68;59.32;100594.66;4276148;33;20097;-93
2023/11/23 07:21:16;;;;;;;3.90;2.05;;;;;;;2.82;59.33;100592.25;4277258;33;20104;-93
2023/11/23 07:23:41;;;;;;;0.37;0.37;;;;;;;2.85;59.33;100594.91;4302654;33;20108;-93
2023/11/23 07:26:07;;;;;;;0.68;0.68;;;;;;;2.90;59.34;100596.66;4256293;33;20185;-93
2023/11/23 07:28:32;;;;;;;2.60;0.62;;;;;;;2.84;59.34;100598.28;4252799;33;20158;-92
2023/11/23 07:30:58;;;;;;;0.98;0.95;;;;;;;2.83;59.33;100593.97;4276904;33;20152;-92
2023/11/23 07:33:29;;;;;;;1.65;1.00;;;;;;;2.97;59.34;100593.31;4281180;33;20123;-93
2023/11/23 07:35:55;;;;;;;1.65;1.55;;;;;;;2.88;59.34;100595.78;4269102;33;20140;-92
2023/11/23 07:38:21;;;;;;;0.43;0.43;;;;;;;2.81;59.33;100593.97;4253425;33;20135;-93
2023/11/23 07:40:46;;;;;;;2.20;1.70;;;;;;;2.94;59.33;100588.16;4276735;33;20100;-92
2023/11/23 07:43:11;;;;;;;1.77;1.65;;;;;;;2.99;59.34;100588.19;4288826;33;20148;-93
2023/11/23 07:45:40;;;;;;;2.45;1.77;;;;;;;2.99;59.34;100589.06;4276940;33;20507;-93
2023/11/23 07:48:08;;;;;;;1.65;1.55;;;;;;;3.00;59.34;100580.50;4288517;33;20129;-93
2023/11/23 07:50:37;;;;;;;3.62;1.12;;;;;;;3.23;59.35;100577.31;4276954;33;20167;-94
2023/11/23 07:53:03;;;;;;;0.70;0.65;;;;;;;3.19;59.35;100568.72;4277137;33;20116;-94
2023/11/23 07:55:28;;;;;;;2.45;1.02;;;;;;;3.20;59.35;100567.00;4286348;33;20108;-93
2023/11/23 07:57:54;;;;;;;2.60;1.62;;;;;;;3.25;59.36;100565.34;4253200;33;20157;-93
2023/11/23 08:00:19;;;;;;;1.62;1.52;;;;;;;3.41;59.37;100556.06;4276674;33;20145;-92
2023/11/23 08:02:45;;;;;;;0.50;0.50;;;;;;;3.36;59.36;100553.47;4288498;33;20593;-93
2023/11/23 08:05:11;;;;;;;2.15;0.73;;;;;;;3.36;59.36;100550.88;4276856;33;20160;-93
2023/11/23 08:07:36;;;;;;;0.20;0.17;;;;;;;3.50;59.37;100556.16;4276825;33;20153;-93
2023/11/23 08:10:06;;;;;;;4.37;3.33;;;;;;;3.66;59.38;100552.88;4276671;33;20405;-92
2023/11/23 08:12:32;;;;;;;1.25;1.15;;;;;;;3.68;59.38;100559.75;4302838;33;20159;-91
2023/11/23 08:14:57;;;;;;;0.50;0.50;;;;;;;3.89;59.38;100551.34;4261710;33;20097;-92
2023/11/23 08:17:23;;;;;;;0.57;0.57;;;;;;;3.90;59.39;100549.66;4262830;33;20139;-93
2023/11/23 08:19:48;;;;;;;2.08;1.45;;;;;;;4.07;59.40;100554.94;4274443;33;20160;-93
2023/11/23 08:22:16;;;;;;;2.70;2.42;;;;;;;4.35;59.41;100555.97;4262615;33;20119;-93
2023/11/23 08:24:41;;;;;;;3.35;1.37;;;;;;;4.25;59.40;100544.72;4264501;33;20125;-93
2023/11/23 08:27:07;;;;;;;0.00;0.00;;;;;;;4.11;59.40;100541.22;4278174;33;20372;-94
2023/11/23 08:29:32;;;;;;;1.70;1.60;;;;;;;4.23;59.41;100533.53;4269250;33;20103;-94
2023/11/23 08:31:58;;;;;;;1.30;1.20;;;;;;;4.39;59.42;100537.09;4264308;33;20132;-94
2023/11/23 08:34:27;;;;;;;3.53;1.85;;;;;;;4.36;59.42;100537.06;4264425;33;20389;-94
2023/11/23 08:36:54;;;;;;;1.50;1.40;;;;;;;4.42;59.42;100534.53;4264293;33;20116;-93
2023/11/23 08:39:19;;;;;;;0.75;0.75;;;;;;;4.32;59.41;100520.72;4273924;33;20096;-93
2023/11/23 08:41:46;;;;;;;1.40;1.35;;;;;;;4.36;59.42;100519.91;4273601;33;20168;-93
2023/11/23 08:44:13;;;;;;;0.95;0.95;;;;;;;4.38;59.42;100514.75;4264348;33;20113;-93
2023/11/23 08:46:41;;;;;;;2.35;2.20;;;;;;;4.39;59.41;100519.91;4264482;33;20136;-93
2023/11/23 08:49:07;;;;;;;0.88;0.88;;;;;;;4.68;59.44;100519.19;4263847;33;20434;-93
2023/11/23 08:51:32;;;;;;;1.30;1.20;;;;;;;4.72;59.44;100524.34;4269224;33;20089;-93
2023/11/23 08:53:58;;;;;;;1.52;1.02;;;;;;;4.71;59.43;100520.03;4267696;33;26161;-94
2023/11/23 08:56:23;;;;;;;1.65;0.98;;;;;;;4.99;59.45;100526.19;4264179;33;20448;-94
2023/11/23 08:58:49;;;;;;;1.65;1.55;;;;;;;4.95;59.45;100521.84;4263954;33;20414;-93
2023/11/23 09:01:14;;;;;;;4.47;1.70;;;;;;;5.29;59.46;100522.81;4264273;33;20119;-94
2023/11/23 09:03:40;;;;;;;0.90;0.82;;;;;;;5.34;59.47;100522.81;4273926;33;20148;-93
2023/11/23 09:06:08;;;;;;;1.65;1.58;;;;;;;5.26;59.47;100515.06;4273532;33;20418;-94
2023/11/23 09:08:33;;;;;;;8.95;3.20;;;;;;;5.21;59.46;100520.22;4264108;33;20096;-94
2023/11/23 09:10:59;;;;;;;0.80;0.80;;;;;;;5.37;59.47;100518.50;4264156;33;20145;-93
2023/11/23 09:13:25;;;;;;;0.20;0.20;;;;;;;5.49;59.48;100507.34;4280578;33;20404;-94
2023/11/23 09:15:53;;;;;;;3.25;3.00;;;;;;;5.59;59.49;100514.22;4282896;33;20139;-92
2023/11/23 09:18:18;;;;;;;0.52;0.52;;;;;;;5.66;59.49;100517.66;4267514;33;20246;-94
2023/11/23 09:20:45;;;;;;;0.82;0.82;;;;;;;5.79;59.50;100519.41;4271983;33;20181;-93
2023/11/23 09:23:11;;;;;;;1.33;0.80;;;;;;;5.92;59.50;100504.81;4282573;33;20165;-93
2023/11/23 09:25:36;;;;;;;1.85;1.42;;;;;;;6.01;59.51;100502.19;4263033;33;20104;-93
2023/11/23 09:28:02;;;;;;;0.85;0.85;;;;;;;5.92;59.51;100494.47;4279019;33;20159;-93
2023/11/23 09:30:27;;;;;;;0.60;0.60;;;;;;;5.98;59.51;100497.91;4262686;33;20097;-92
2023/11/23 09:32:53;;;;;;;0.40;0.40;;;;;;;5.96;59.51;100497.03;4266844;33;20425;-93
2023/11/23 09:35:19;;;;;;;3.47;2.90;;;;;;;5.96;59.51;100491.88;4261829;33;20432;-94
2023/11/23 09:37:45;;;;;;;0.82;0.82;;;;;;;5.98;59.51;100487.56;4277782;33;20092;-94
2023/11/23 09:40:17;;;;;;;0.90;0.90;;;;;;;6.04;59.51;100486.69;4283593;33;20520;-93
2023/11/23 09:42:43;;;;;;;0.60;0.60;;;;;;;6.26;59.52;100487.50;4258848;33;20755;-93
2023/11/23 09:45:14;;;;;;;0.52;0.43;;;;;;;6.28;59.52;100488.34;4262057;33;20108;-93
2023/11/23 09:47:40;;;;;;;0.95;0.90;;;;;;;6.29;59.53;100488.34;4277617;33;20362;-93
2023/11/23 09:50:06;;;;;;;1.23;1.12;;;;;;;6.29;59.53;100488.34;4273645;33;20188;-92
2023/11/23 09:52:33;;;;;;;0.70;0.70;;;;;;;6.31;59.53;100488.34;4265902;33;20133;-94
2023/11/23 09:54:59;;;;;;;1.12;1.12;;;;;;;6.43;59.52;100483.12;4265732;33;20187;-92
2023/11/23 09:57:25;;;;;;;0.82;0.82;;;;;;;6.34;59.53;100472.81;4256231;33;20115;-93
2023/11/23 09:59:50;;;;;;;0.98;0.98;;;;;;;6.58;59.55;100467.53;4265818;33;20149;-93
2023/11/23 10:02:21;;;;;;;3.03;1.75;;;;;;;6.56;59.54;100468.41;4265674;33;20364;-93
2023/11/23 10:04:50;;;;;;;1.55;0.98;;;;;;;6.31;59.53;100465.06;4273156;33;20795;-93
2023/11/23 10:07:16;;;;;;;1.12;1.12;;;;;;;6.34;59.52;100465.91;4280042;33;20837;-93
2023/11/23 10:09:42;;;;;;;2.03;1.67;;;;;;;6.52;59.54;100448.62;4265875;33;20125;-93
2023/11/23 10:12:07;;;;;;;0.55;0.55;;;;;;;6.49;59.53;100444.31;4277719;33;20154;-93
2023/11/23 10:14:33;;;;;;;0.47;0.47;;;;;;;6.67;59.55;100435.62;4258217;33;20176;-92
2023/11/23 10:16:59;;;;;;;1.52;1.10;;;;;;;6.84;59.56;100430.31;4273251;33;20123;-93
2023/11/23 10:19:24;;;;;;;2.08;1.87;;;;;;;6.97;59.57;100425.09;4269720;33;20133;-93
2023/11/23 10:21:52;;;;;;;3.70;1.95;;;;;;;6.98;59.56;100426.78;4263522;33;20133;-94
2023/11/23 10:24:18;;;;;;;0.90;0.75;;;;;;;7.15;59.57;100420.66;4263231;33;20200;-93
2023/11/23 10:26:44;;;;;;;3.28;2.08;;;;;;;7.05;59.57;100415.53;4265452;33;20095;-93
2023/11/23 10:29:09;;;;;;;2.17;0.80;;;;;;;7.17;59.57;100416.31;4282886;33;20092;-93
2023/11/23 10:31:35;;;;;;;0.15;0.15;;;;;;;7.29;59.58;100408.44;4263162;33;20524;-93
2023/11/23 10:34:01;;;;;;;0.08;0.08;;;;;;;7.31;59.58;100401.50;4270345;33;20108;-93
2023/11/23 10:36:27;;;;;;;0.10;0.10;;;;;;;7.45;59.59;100396.22;4274921;33;20115;-93
2023/11/23 10:38:56;;;;;;;0.55;0.55;;;;;;;7.59;59.59;100390.06;4269904;33;20371;-93
2023/11/23 10:41:22;;;;;;;0.32;0.22;;;;;;;7.73;59.60;100381.28;4277818;33;20156;-94
2023/11/23 10:43:49;;;;;;;3.60;0.95;;;;;;;7.80;59.61;100376.00;4268053;33;20125;-93
2023/11/23 10:46:15;;;;;;;0.45;0.45;;;;;;;7.77;59.60;100380.38;4250625;33;20105;-93
2023/11/23 10:48:41;;;;;;;2.92;1.65;;;;;;;7.97;59.62;100381.00;4263451;33;20143;-93
2023/11/23 10:51:06;;;;;;;0.00;0.00;;;;;;;7.98;59.62;100369.75;4262955;33;20210;-93
2023/11/23 10:53:32;;;;;;;0.03;0.03;;;;;;;7.87;59.61;100369.03;4262815;33;20132;-94
2023/11/23 10:56:05;;;;;;;2.25;1.48;;;;;;;8.14;59.62;100349.69;4265528;33;20145;-93
2023/11/23 10:58:33;;;;;;;2.53;0.85;;;;;;;8.18;59.63;100349.63;4268709;33;20068;-93
2023/11/23 11:00:58;;;;;;;0.45;0.45;;;;;;;8.15;59.63;100338.47;4250986;33;20798;-94
2023/11/23 11:03:24;;;;;;;0.28;0.28;;;;;;;8.11;59.62;100347.16;4271368;33;20112;-93
2023/11/23 11:05:50;;;;;;;0.22;0.22;;;;;;;7.90;59.61;100343.94;4263896;33;20168;-93
2023/11/23 11:08:17;;;;;;;0.98;0.88;;;;;;;7.95;59.61;100343.88;4250982;33;20168;-94
2023/11/23 11:10:46;;;;;;;3.85;0.75;;;;;;;7.95;59.62;100336.09;4262790;33;20113;-93
2023/11/23 11:13:12;;;;;;;1.27;1.08;;;;;;;7.89;59.61;100333.59;4266344;33;20600;-94
2023/11/23 11:15:57;;;;;;;0.30;0.30;;;;;;;7.99;59.62;100327.41;4288775;33;20118;-94
2023/11/23 11:18:25;;;;;;;0.30;0.30;;;;;;;7.93;59.62;100330.09;4280394;33;20083;-92
2023/11/23 11:21:06;;;;;;;0.25;0.25;;;;;;;8.00;59.62;100323.94;4264329;33;138063;-93
2023/11/23 11:23:54;;;;;;;1.40;0.73;;;;;;;8.10;59.62;100322.97;4290785;33;20121;-94
2023/11/23 11:26:25;;;;;;;1.40;1.30;;;;;;;8.41;59.64;100309.59;4274857;33;20127;-93
2023/11/23 11:28:55;;;;;;;1.58;1.10;;;;;;;8.53;59.66;100291.28;4265038;33;20093;-94